sensor_id;sensor_type;location;lat;lon;timestamp;pressure;altitude;pressure_sealevel;temperature;humidity
62152;BME280;48139;47.474;19.034;2023-12-20T04:47:26;100355.16;;;-0.86;100.00
62152;BME280;48139;47.474;19.034;2023-12-20T04:50:29;100355.16;;;-0.86;100.00
62152;BME280;48139;47.474;19.034;2023-12-20T04:53:31;100347.44;;;-1.36;100.00
62152;BME280;48139;47.474;19.034;2023-12-20T04:56:34;100352.59;;;-1.27;100.00
62152;BME280;48139;47.474;19.034;2023-12-20T04:59:37;100344.03;;;-1.18;100.00
62152;BME280;48139;47.474;19.034;2023-12-20T05:02:40;100316.62;;;-1.14;100.00
62152;BME280;48139;47.474;19.034;2023-12-20T05:05:42;100314.03;;;-0.98;100.00
62152;BME280;48139;47.474;19.034;2023-12-20T05:08:45;100315.75;;;-0.98;100.00
62152;BME280;48139;47.474;19.034;2023-12-20T05:11:48;100310.63;;;-0.95;100.00
62152;BME280;48139;47.474;19.034;2023-12-20T05:14:52;100303.69;;;-0.73;100.00
62152;BME280;48139;47.474;19.034;2023-12-20T05:17:54;100313.12;;;-0.71;100.00
62152;BME280;48139;47.474;19.034;2023-12-20T05:20:58;100300.28;;;-0.71;100.00
62152;BME280;48139;47.474;19.034;2023-12-20T05:24:01;100305.37;;;-0.56;100.00
62152;BME280;48139;47.474;19.034;2023-12-20T05:27:04;100294.25;;;-0.58;100.00
62152;BME280;48139;47.474;19.034;2023-12-20T05:30:07;100289.94;;;-0.53;100.00
62152;BME280;48139;47.474;19.034;2023-12-20T05:33:10;100304.50;;;-0.47;100.00
62152;BME280;48139;47.474;19.034;2023-12-20T05:36:13;100315.63;;;-0.50;100.00
62152;BME280;48139;47.474;19.034;2023-12-20T05:39:17;100331.97;;;-0.58;100.00
62152;BME280;48139;47.474;19.034;2023-12-20T05:42:20;100329.41;;;-0.57;100.00
62152;BME280;48139;47.474;19.034;2023-12-20T05:45:23;100331.97;;;-0.57;100.00
62152;BME280;48139;47.474;19.034;2023-12-20T05:48:25;100322.53;;;-0.62;100.00
62152;BME280;48139;47.474;19.034;2023-12-20T05:51:28;100315.69;;;-0.68;100.00
62152;BME280;48139;47.474;19.034;2023-12-20T05:54:31;100302.00;;;-0.71;100.00
62152;BME280;48139;47.474;19.034;2023-12-20T05:57:34;100296.00;;;-0.79;100.00
62152;BME280;48139;47.474;19.034;2023-12-20T06:00:37;100285.63;;;-0.48;100.00
62152;BME280;48139;47.474;19.034;2023-12-20T06:03:41;100279.59;;;-0.39;100.00
62152;BME280;48139;47.474;19.034;2023-12-20T06:06:44;100282.97;;;-0.31;100.00
62152;BME280;48139;47.474;19.034;2023-12-20T06:09:47;100280.41;;;-0.26;100.00
62152;BME280;48139;47.474;19.034;2023-12-20T06:12:50;100276.06;;;-0.18;100.00
62152;BME280;48139;47.474;19.034;2023-12-20T06:15:55;100270.94;;;-0.24;100.00
62152;BME280;48139;47.474;19.034;2023-12-20T06:18:58;100257.22;;;-0.23;100.00
62152;BME280;48139;47.474;19.034;2023-12-20T06:22:01;100257.19;;;-0.16;100.00
62152;BME280;48139;47.474;19.034;2023-12-20T06:25:04;100269.19;;;-0.16;100.00
62152;BME280;48139;47.474;19.034;2023-12-20T06:28:08;100258.09;;;-0.27;100.00
62152;BME280;48139;47.474;19.034;2023-12-20T06:31:12;100261.50;;;-0.19;100.00
62152;BME280;48139;47.474;19.034;2023-12-20T06:34:15;100256.31;;;-0.15;100.00
62152;BME280;48139;47.474;19.034;2023-12-20T06:37:18;100263.22;;;-0.21;100.00
62152;BME280;48139;47.474;19.034;2023-12-20T06:40:21;100266.69;;;-0.30;100.00
62152;BME280;48139;47.474;19.034;2023-12-20T06:43:24;100276.19;;;-0.46;100.00
62152;BME280;48139;47.474;19.034;2023-12-20T06:46:45;100289.94;;;-0.60;100.00
62152;BME280;48139;47.474;19.034;2023-12-20T06:49:48;100300.28;;;-0.63;100.00
62152;BME280;48139;47.474;19.034;2023-12-20T06:52:51;100312.25;;;-0.67;100.00
62152;BME280;48139;47.474;19.034;2023-12-20T06:55:55;100326.00;;;-0.77;100.00
62152;BME280;48139;47.474;19.034;2023-12-20T06:59:00;100324.34;;;-1.01;100.00
62152;BME280;48139;47.474;19.034;2023-12-20T07:02:03;100327.75;;;-0.91;100.00
62152;BME280;48139;47.474;19.034;2023-12-20T07:05:09;100338.03;;;-0.84;100.00
62152;BME280;48139;47.474;19.034;2023-12-20T07:08:12;100337.19;;;-1.01;100.00
62152;BME280;48139;47.474;19.034;2023-12-20T07:11:17;100320.88;;;-0.98;100.00
62152;BME280;48139;47.474;19.034;2023-12-20T07:14:19;100325.19;;;-0.96;100.00
62152;BME280;48139;47.474;19.034;2023-12-20T07:17:22;100317.47;;;-0.96;100.00
62152;BME280;48139;47.474;19.034;2023-12-20T07:20:25;100311.44;;;-0.92;100.00
62152;BME280;48139;47.474;19.034;2023-12-20T07:23:28;100314.87;;;-0.77;100.00
62152;BME280;48139;47.474;19.034;2023-12-20T07:26:30;100312.22;;;-0.53;100.00
62152;BME280;48139;47.474;19.034;2023-12-20T07:29:33;100319.06;;;-0.49;100.00
62152;BME280;48139;47.474;19.034;2023-12-20T07:32:36;100317.28;;;-0.29;100.00
62152;BME280;48139;47.474;19.034;2023-12-20T07:35:39;100307.84;;;-0.30;100.00
62152;BME280;48139;47.474;19.034;2023-12-20T07:38:42;100307.78;;;-0.10;100.00
62152;BME280;48139;47.474;19.034;2023-12-20T07:41:47;100324.87;;;0.02;100.00
62152;BME280;48139;47.474;19.034;2023-12-20T07:44:49;100316.34;;;-0.07;100.00
62152;BME280;48139;47.474;19.034;2023-12-20T07:47:52;100315.47;;;-0.06;100.00
62152;BME280;48139;47.474;19.034;2023-12-20T07:50:55;100316.41;;;-0.22;100.00
62152;BME280;48139;47.474;19.034;2023-12-20T07:53:58;100313.84;;;-0.25;100.00
62152;BME280;48139;47.474;19.034;2023-12-20T07:57:01;100303.53;;;-0.23;100.00
62152;BME280;48139;47.474;19.034;2023-12-20T08:00:05;100306.13;;;-0.26;100.00
62152;BME280;48139;47.474;19.034;2023-12-20T08:03:10;100294.13;;;-0.26;100.00
62152;BME280;48139;47.474;19.034;2023-12-20T08:06:12;100283.78;;;-0.17;100.00
62152;BME280;48139;47.474;19.034;2023-12-20T08:09:15;100281.09;;;0.05;100.00
62152;BME280;48139;47.474;19.034;2023-12-20T08:12:18;100282.75;;;0.18;100.00
62152;BME280;48139;47.474;19.034;2023-12-20T08:15:20;100282.56;;;0.42;100.00
62152;BME280;48139;47.474;19.034;2023-12-20T08:18:23;100289.34;;;0.55;100.00
62152;BME280;48139;47.474;19.034;2023-12-20T08:21:26;100287.63;;;0.56;100.00
62152;BME280;48139;47.474;19.034;2023-12-20T08:24:29;100285.25;;;0.25;100.00
62152;BME280;48139;47.474;19.034;2023-12-20T08:27:32;100289.34;;;0.51;100.00
62152;BME280;48139;47.474;19.034;2023-12-20T08:30:36;100290.91;;;0.73;100.00
62152;BME280;48139;47.474;19.034;2023-12-20T08:33:39;100288.25;;;0.82;100.00
62152;BME280;48139;47.474;19.034;2023-12-20T08:36:42;100302.84;;;0.85;100.00
62152;BME280;48139;47.474;19.034;2023-12-20T08:39:45;100294.41;;;0.67;100.00
62152;BME280;48139;47.474;19.034;2023-12-20T08:42:47;100302.16;;;0.64;100.00
62152;BME280;48139;47.474;19.034;2023-12-20T08:45:50;100291.06;;;0.56;100.00
62152;BME280;48139;47.474;19.034;2023-12-20T08:48:53;100301.31;;;0.61;100.00
62152;BME280;48139;47.474;19.034;2023-12-20T08:51:56;100297.78;;;0.74;100.00
62152;BME280;48139;47.474;19.034;2023-12-20T08:54:58;100297.50;;;1.06;100.00
62152;BME280;48139;47.474;19.034;2023-12-20T08:58:01;100305.97;;;1.18;100.00
62152;BME280;48139;47.474;19.034;2023-12-20T09:01:04;100295.53;;;1.29;100.00
62152;BME280;48139;47.474;19.034;2023-12-20T09:04:07;100297.13;;;1.42;100.00
62152;BME280;48139;47.474;19.034;2023-12-20T09:07:23;100291.97;;;1.39;100.00
62152;BME280;48139;47.474;19.034;2023-12-20T09:10:26;100298.97;;;1.30;100.00
62152;BME280;48139;47.474;19.034;2023-12-20T09:13:29;100308.37;;;1.34;100.00
62152;BME280;48139;47.474;19.034;2023-12-20T09:16:34;100296.41;;;1.27;100.00
62152;BME280;48139;47.474;19.034;2023-12-20T09:19:37;100295.66;;;1.17;100.00
62152;BME280;48139;47.474;19.034;2023-12-20T09:22:41;100290.41;;;1.26;100.00
62152;BME280;48139;47.474;19.034;2023-12-20T09:25:44;100291.75;;;1.60;100.00
62152;BME280;48139;47.474;19.034;2023-12-20T09:28:47;100289.81;;;1.78;100.00
62152;BME280;48139;47.474;19.034;2023-12-20T09:31:50;100279.72;;;1.56;100.00
62152;BME280;48139;47.474;19.034;2023-12-20T09:34:53;100273.78;;;1.51;100.00
62152;BME280;48139;47.474;19.034;2023-12-20T09:37:56;100269.38;;;1.59;100.00
62152;BME280;48139;47.474;19.034;2023-12-20T09:40:58;100256.06;;;1.93;100.00
62152;BME280;48139;47.474;19.034;2023-12-20T09:44:02;100253.13;;;2.17;100.00
62152;BME280;48139;47.474;19.034;2023-12-20T09:47:06;100253.03;;;2.23;100.00
62152;BME280;48139;47.474;19.034;2023-12-20T09:50:09;100246.16;;;2.21;100.00
62152;BME280;48139;47.474;19.034;2023-12-20T09:53:15;100238.13;;;2.39;100.00
62152;BME280;48139;47.474;19.034;2023-12-20T09:56:18;100238.19;;;2.34;100.00
62152;BME280;48139;47.474;19.034;2023-12-20T09:59:21;100229.59;;;2.32;100.00
62152;BME280;48139;47.474;19.034;2023-12-20T10:02:25;100231.88;;;1.95;100.00
62152;BME280;48139;47.474;19.034;2023-12-20T10:05:33;100226.13;;;1.75;100.00
62152;BME280;48139;47.474;19.034;2023-12-20T10:08:36;100225.56;;;1.53;100.00
62152;BME280;48139;47.474;19.034;2023-12-20T10:11:40;100220.47;;;1.49;100.00
62152;BME280;48139;47.474;19.034;2023-12-20T10:14:42;100217.66;;;1.67;100.00
62152;BME280;48139;47.474;19.034;2023-12-20T10:17:48;100210.81;;;1.63;100.00
62152;BME280;48139;47.474;19.034;2023-12-20T10:20:51;100196.31;;;1.53;100.00
62152;BME280;48139;47.474;19.034;2023-12-20T10:23:56;100203.19;;;1.55;100.00
62152;BME280;48139;47.474;19.034;2023-12-20T10:27:06;100200.44;;;1.68;100.00
62152;BME280;48139;47.474;19.034;2023-12-20T10:30:09;100171.97;;;1.74;100.00
62152;BME280;48139;47.474;19.034;2023-12-20T10:33:12;100161.38;;;1.90;100.00
62152;BME280;48139;47.474;19.034;2023-12-20T10:36:15;100166.34;;;2.02;100.00
62152;BME280;48139;47.474;19.034;2023-12-20T10:39:18;100165.16;;;2.25;100.00
62152;BME280;48139;47.474;19.034;2023-12-20T10:42:24;100159.47;;;2.54;100.00
62152;BME280;48139;47.474;19.034;2023-12-20T10:45:28;100153.88;;;2.75;100.00
62152;BME280;48139;47.474;19.034;2023-12-20T10:48:32;100152.75;;;2.91;100.00
62152;BME280;48139;47.474;19.034;2023-12-20T10:51:35;100152.34;;;3.11;100.00
62152;BME280;48139;47.474;19.034;2023-12-20T10:54:40;100143.59;;;3.18;100.00
62152;BME280;48139;47.474;19.034;2023-12-20T10:57:44;100147.69;;;3.27;100.00
62152;BME280;48139;47.474;19.034;2023-12-20T11:01:00;100135.75;;;3.21;100.00
62152;BME280;48139;47.474;19.034;2023-12-20T11:04:08;100140.75;;;3.29;100.00
62152;BME280;48139;47.474;19.034;2023-12-20T11:07:25;100143.47;;;3.24;100.00
62152;BME280;48139;47.474;19.034;2023-12-20T11:10:38;100137.16;;;3.37;100.00
62152;BME280;48139;47.474;19.034;2023-12-20T11:13:55;100127.97;;;3.61;100.00
62152;BME280;48139;47.474;19.034;2023-12-20T11:17:09;100114.16;;;3.62;100.00
62152;BME280;48139;47.474;19.034;2023-12-20T11:20:12;100110.97;;;3.49;100.00
62152;BME280;48139;47.474;19.034;2023-12-20T11:23:16;100096.22;;;3.53;100.00
62152;BME280;48139;47.474;19.034;2023-12-20T11:26:26;100085.97;;;3.48;100.00
62152;BME280;48139;47.474;19.034;2023-12-20T11:29:35;100073.03;;;3.48;100.00
62152;BME280;48139;47.474;19.034;2023-12-20T11:32:39;100071.19;;;3.53;100.00
62152;BME280;48139;47.474;19.034;2023-12-20T11:35:43;100058.06;;;3.61;100.00
62152;BME280;48139;47.474;19.034;2023-12-20T11:38:56;100050.22;;;3.62;100.00
62152;BME280;48139;47.474;19.034;2023-12-20T11:42:04;100050.16;;;3.65;100.00
62152;BME280;48139;47.474;19.034;2023-12-20T11:45:10;100052.88;;;3.61;100.00
62152;BME280;48139;47.474;19.034;2023-12-20T11:48:13;100056.34;;;3.60;100.00
62152;BME280;48139;47.474;19.034;2023-12-20T11:51:16;100065.13;;;3.54;100.00
62152;BME280;48139;47.474;19.034;2023-12-20T11:54:18;100068.28;;;3.67;100.00
62152;BME280;48139;47.474;19.034;2023-12-20T11:57:21;100054.84;;;3.87;100.00
62152;BME280;48139;47.474;19.034;2023-12-20T12:00:24;100047.37;;;4.09;100.00
62152;BME280;48139;47.474;19.034;2023-12-20T12:03:27;100059.88;;;4.25;100.00
62152;BME280;48139;47.474;19.034;2023-12-20T12:06:29;100055.19;;;4.39;100.00
62152;BME280;48139;47.474;19.034;2023-12-20T12:09:32;100027.09;;;4.55;100.00
62152;BME280;48139;47.474;19.034;2023-12-20T12:12:36;100032.72;;;4.69;100.00
62152;BME280;48139;47.474;19.034;2023-12-20T12:15:40;100036.50;;;4.88;100.00
62152;BME280;48139;47.474;19.034;2023-12-20T12:18:45;100034.88;;;5.14;100.00
62152;BME280;48139;47.474;19.034;2023-12-20T12:21:48;100025.59;;;5.35;100.00
62152;BME280;48139;47.474;19.034;2023-12-20T12:24:50;100026.13;;;5.46;100.00
62152;BME280;48139;47.474;19.034;2023-12-20T12:27:54;100036.16;;;5.56;100.00
62152;BME280;48139;47.474;19.034;2023-12-20T12:30:57;100040.63;;;5.79;100.00
62152;BME280;48139;47.474;19.034;2023-12-20T12:34:01;100037.09;;;6.08;100.00
62152;BME280;48139;47.474;19.034;2023-12-20T12:37:04;100043.94;;;6.60;100.00
62152;BME280;48139;47.474;19.034;2023-12-20T12:40:12;100031.81;;;6.82;100.00
62152;BME280;48139;47.474;19.034;2023-12-20T12:43:15;100035.72;;;6.94;100.00
62152;BME280;48139;47.474;19.034;2023-12-20T12:46:18;100035.25;;;7.06;100.00
62152;BME280;48139;47.474;19.034;2023-12-20T12:49:22;100038.81;;;7.05;100.00
62152;BME280;48139;47.474;19.034;2023-12-20T12:52:25;100038.09;;;7.00;100.00
62152;BME280;48139;47.474;19.034;2023-12-20T12:55:29;100042.62;;;6.95;100.00
62152;BME280;48139;47.474;19.034;2023-12-20T12:58:32;100031.44;;;6.93;100.00
62152;BME280;48139;47.474;19.034;2023-12-20T13:01:35;100036.66;;;6.93;100.00
62152;BME280;48139;47.474;19.034;2023-12-20T13:04:39;100039.41;;;6.88;100.00
62152;BME280;48139;47.474;19.034;2023-12-20T13:07:43;100031.81;;;6.82;100.00
62152;BME280;48139;47.474;19.034;2023-12-20T13:10:49;100032.84;;;6.78;100.00
62152;BME280;48139;47.474;19.034;2023-12-20T13:13:52;100040.31;;;6.64;100.00
62152;BME280;48139;47.474;19.034;2023-12-20T13:16:55;100034.38;;;6.61;100.00
62152;BME280;48139;47.474;19.034;2023-12-20T13:19:58;100034.66;;;6.53;100.00
62152;BME280;48139;47.474;19.034;2023-12-20T13:23:02;100024.72;;;6.39;100.00
62152;BME280;48139;47.474;19.034;2023-12-20T13:26:06;100014.47;;;6.35;100.00
62152;BME280;48139;47.474;19.034;2023-12-20T13:29:10;100018.62;;;6.40;100.00
62152;BME280;48139;47.474;19.034;2023-12-20T13:32:12;100025.16;;;6.27;100.00
62152;BME280;48139;47.474;19.034;2023-12-20T13:35:15;100020.16;;;6.21;100.00
62152;BME280;48139;47.474;19.034;2023-12-20T13:38:18;100027.75;;;6.27;100.00
62152;BME280;48139;47.474;19.034;2023-12-20T13:41:23;100014.75;;;6.02;100.00
62152;BME280;48139;47.474;19.034;2023-12-20T13:44:25;100030.47;;;5.99;100.00
62152;BME280;48139;47.474;19.034;2023-12-20T13:47:28;100029.91;;;5.90;100.00
62152;BME280;48139;47.474;19.034;2023-12-20T13:50:31;100019.72;;;5.82;100.00
62152;BME280;48139;47.474;19.034;2023-12-20T13:53:34;100020.72;;;5.78;100.00
62152;BME280;48139;47.474;19.034;2023-12-20T13:56:37;100028.72;;;5.72;100.00
62152;BME280;48139;47.474;19.034;2023-12-20T13:59:53;100019.34;;;5.68;100.00
62152;BME280;48139;47.474;19.034;2023-12-20T14:02:56;100024.47;;;5.69;100.00
62152;BME280;48139;47.474;19.034;2023-12-20T14:05:59;100027.16;;;5.68;100.00
62152;BME280;48139;47.474;19.034;2023-12-20T14:09:03;100029.22;;;5.83;100.00
62152;BME280;48139;47.474;19.034;2023-12-20T14:12:07;100030.03;;;5.85;100.00
62152;BME280;48139;47.474;19.034;2023-12-20T14:15:11;100036.56;;;5.98;100.00
62152;BME280;48139;47.474;19.034;2023-12-20T14:18:15;100047.84;;;5.97;100.00
62152;BME280;48139;47.474;19.034;2023-12-20T14:21:19;100034.66;;;6.03;100.00
62152;BME280;48139;47.474;19.034;2023-12-20T14:24:22;100048.59;;;6.01;100.00
62152;BME280;48139;47.474;19.034;2023-12-20T14:27:24;100029.50;;;6.02;100.00
62152;BME280;48139;47.474;19.034;2023-12-20T14:30:30;100030.59;;;5.95;100.00
62152;BME280;48139;47.474;19.034;2023-12-20T14:33:32;100039.81;;;6.05;100.00
62152;BME280;48139;47.474;19.034;2023-12-20T14:36:35;100030.37;;;6.01;100.00
62152;BME280;48139;47.474;19.034;2023-12-20T14:39:38;100032.72;;;6.08;100.00
62152;BME280;48139;47.474;19.034;2023-12-20T14:42:44;100054.81;;;5.97;100.00
62152;BME280;48139;47.474;19.034;2023-12-20T14:45:48;100049.81;;;5.91;100.00
62152;BME280;48139;47.474;19.034;2023-12-20T14:48:51;100047.16;;;5.92;100.00
62152;BME280;48139;47.474;19.034;2023-12-20T14:51:54;100059.44;;;5.87;100.00
62152;BME280;48139;47.474;19.034;2023-12-20T14:54:56;100052.56;;;5.85;100.00
62152;BME280;48139;47.474;19.034;2023-12-20T14:57:59;100072.00;;;5.73;100.00
62152;BME280;48139;47.474;19.034;2023-12-20T15:01:03;100059.16;;;5.68;100.00
62152;BME280;48139;47.474;19.034;2023-12-20T15:04:06;100070.59;;;5.63;100.00
62152;BME280;48139;47.474;19.034;2023-12-20T15:07:10;100071.41;;;5.65;100.00
62152;BME280;48139;47.474;19.034;2023-12-20T15:10:12;100085.19;;;5.67;100.00
62152;BME280;48139;47.474;19.034;2023-12-20T15:13:16;100080.28;;;5.58;100.00
62152;BME280;48139;47.474;19.034;2023-12-20T15:16:18;100087.41;;;5.51;100.00
62152;BME280;48139;47.474;19.034;2023-12-20T15:19:21;100084.94;;;5.48;100.00
62152;BME280;48139;47.474;19.034;2023-12-20T15:22:24;100096.28;;;5.44;100.00
62152;BME280;48139;47.474;19.034;2023-12-20T15:25:29;100109.09;;;5.50;100.00
62152;BME280;48139;47.474;19.034;2023-12-20T15:28:31;100106.31;;;5.56;100.00
62152;BME280;48139;47.474;19.034;2023-12-20T15:31:34;100111.59;;;5.53;100.00
62152;BME280;48139;47.474;19.034;2023-12-20T15:34:36;100119.22;;;5.59;100.00
62152;BME280;48139;47.474;19.034;2023-12-20T15:37:40;100103.00;;;5.51;100.00
62152;BME280;48139;47.474;19.034;2023-12-20T15:40:43;100111.87;;;5.44;100.00
62152;BME280;48139;47.474;19.034;2023-12-20T15:43:46;100117.31;;;5.37;100.00
62152;BME280;48139;47.474;19.034;2023-12-20T15:46:51;100112.22;;;5.32;100.00
62152;BME280;48139;47.474;19.034;2023-12-20T15:49:54;100108.56;;;5.39;100.00
62152;BME280;48139;47.474;19.034;2023-12-20T15:52:57;100120.78;;;5.37;100.00
62152;BME280;48139;47.474;19.034;2023-12-20T15:56:00;100122.59;;;5.34;100.00
62152;BME280;48139;47.474;19.034;2023-12-20T15:59:03;100131.25;;;5.33;100.00
62152;BME280;48139;47.474;19.034;2023-12-20T16:02:06;100127.75;;;5.35;100.00
62152;BME280;48139;47.474;19.034;2023-12-20T16:05:09;100142.63;;;5.30;100.00
62152;BME280;48139;47.474;19.034;2023-12-20T16:08:12;100144.47;;;5.25;100.00
62152;BME280;48139;47.474;19.034;2023-12-20T16:11:15;100148.69;;;5.29;100.00
62152;BME280;48139;47.474;19.034;2023-12-20T16:14:18;100132.22;;;5.30;100.00
62152;BME280;48139;47.474;19.034;2023-12-20T16:17:22;100143.53;;;5.27;100.00
62152;BME280;48139;47.474;19.034;2023-12-20T16:20:24;100137.62;;;5.22;100.00
62152;BME280;48139;47.474;19.034;2023-12-20T16:23:27;100143.75;;;5.20;100.00
62152;BME280;48139;47.474;19.034;2023-12-20T16:26:30;100145.31;;;5.25;100.00
62152;BME280;48139;47.474;19.034;2023-12-20T16:29:33;100152.25;;;5.25;100.00
62152;BME280;48139;47.474;19.034;2023-12-20T16:32:36;100148.84;;;5.24;100.00
